BAW468 EGLL-LEPA
Flight info
| Callsign | BAW468 |
|---|---|
| Flight time | 1h 57m |
| Altitude | 35000 |
| Route | MODMI M185 MID L151 SITET UN859 SOPIL DCT BALAN DCT EVPOK DCT NARAK DCT GAI DCT LOMRA DCT ROCAN DCT IBRAP N13 LORES |
| Aircraft | A320/M-SDE3FGHIRWY/LB1 |
Departure
| Time | 2026-05-06 16:10 |
|---|---|
| Airport | London Heathrow Airport (EGLL) |
Arrival
| Time | 2026-05-06 18:07 |
|---|---|
| Airport | Palma de Mallorca Airport (LEPA) |
| Time | Latitude | Longitude | Altitude | Speed | Heading |
|---|---|---|---|---|---|
| 2026-05-06 15:35 | 51.47133 | -0.48032 | 91 ft | 0 kts | 269° |
| 2026-05-06 16:00 | 51.47133 | -0.48014 | 88 ft | 4 kts | 269° |
| 2026-05-06 16:00 | 51.47133 | -0.47971 | 88 ft | 4 kts | 269° |
| 2026-05-06 16:00 | 51.47133 | -0.47927 | 89 ft | 4 kts | 269° |
| 2026-05-06 16:01 | 51.47135 | -0.47886 | 92 ft | 4 kts | 240° |
| 2026-05-06 16:01 | 51.47148 | -0.47871 | 92 ft | 3 kts | 179° |
| 2026-05-06 16:01 | 51.47166 | -0.47871 | 92 ft | 0 kts | 179° |
| 2026-05-06 16:04 | 51.47161 | -0.47871 | 90 ft | 4 kts | 179° |
| 2026-05-06 16:04 | 51.47100 | -0.47868 | 89 ft | 11 kts | 179° |
| 2026-05-06 16:04 | 51.47014 | -0.47869 | 88 ft | 13 kts | 180° |
| 2026-05-06 16:04 | 51.46912 | -0.47869 | 86 ft | 16 kts | 180° |
| 2026-05-06 16:05 | 51.46788 | -0.47871 | 85 ft | 19 kts | 179° |
| 2026-05-06 16:05 | 51.46674 | -0.47881 | 83 ft | 15 kts | 206° |
| 2026-05-06 16:05 | 51.46653 | -0.48023 | 84 ft | 11 kts | 271° |
| 2026-05-06 16:05 | 51.46653 | -0.48102 | 86 ft | 0 kts | 270° |
| 2026-05-06 16:07 | 51.46642 | -0.48184 | 90 ft | 15 kts | 232° |
| 2026-05-06 16:07 | 51.46615 | -0.48210 | 86 ft | 6 kts | 194° |
| 2026-05-06 16:07 | 51.46598 | -0.48213 | 86 ft | 0 kts | 183° |
| 2026-05-06 16:08 | 51.46535 | -0.48213 | 86 ft | 17 kts | 174° |
| 2026-05-06 16:08 | 51.46480 | -0.48116 | 85 ft | 0 kts | 93° |
| 2026-05-06 16:09 | 51.46479 | -0.47933 | 83 ft | 48 kts | 89° |
| 2026-05-06 16:09 | 51.46483 | -0.47034 | 85 ft | 109 kts | 90° |
| 2026-05-06 16:09 | 51.46487 | -0.45554 | 84 ft | 155 kts | 89° |
| 2026-05-06 16:09 | 51.46499 | -0.43741 | 486 ft | 163 kts | 87° |
| 2026-05-06 16:10 | 51.46380 | -0.41952 | 1257 ft | 158 kts | 100° |
| 2026-05-06 16:10 | 51.45932 | -0.40392 | 1926 ft | 152 kts | 128° |
| 2026-05-06 16:10 | 51.45035 | -0.39389 | 2220 ft | 168 kts | 158° |
| 2026-05-06 16:10 | 51.43898 | -0.38701 | 2495 ft | 185 kts | 148° |
| 2026-05-06 16:11 | 51.42722 | -0.37610 | 2728 ft | 207 kts | 148° |
| 2026-05-06 16:11 | 51.41402 | -0.36388 | 2945 ft | 232 kts | 152° |
| 2026-05-06 16:11 | 51.39753 | -0.35885 | 3308 ft | 258 kts | 188° |
| 2026-05-06 16:11 | 51.38035 | -0.36906 | 3929 ft | 270 kts | 209° |
| 2026-05-06 16:12 | 51.36356 | -0.38300 | 4818 ft | 273 kts | 208° |
| 2026-05-06 16:12 | 51.34650 | -0.39680 | 5713 ft | 276 kts | 208° |
| 2026-05-06 16:12 | 51.32923 | -0.41053 | 6564 ft | 279 kts | 207° |
| 2026-05-06 16:12 | 51.31171 | -0.42434 | 7370 ft | 283 kts | 207° |
| 2026-05-06 16:13 | 51.29392 | -0.43827 | 8171 ft | 286 kts | 207° |
| 2026-05-06 16:13 | 51.27596 | -0.45230 | 8979 ft | 289 kts | 208° |
| 2026-05-06 16:13 | 51.25781 | -0.46662 | 9778 ft | 293 kts | 208° |
| 2026-05-06 16:13 | 51.23940 | -0.48129 | 10362 ft | 303 kts | 208° |
| 2026-05-06 16:14 | 51.21981 | -0.49693 | 10557 ft | 326 kts | 208° |
| 2026-05-06 16:14 | 51.19899 | -0.51322 | 10989 ft | 338 kts | 208° |
| 2026-05-06 16:14 | 51.17768 | -0.52968 | 11627 ft | 342 kts | 207° |
| 2026-05-06 16:14 | 51.15614 | -0.54629 | 12300 ft | 345 kts | 207° |
| 2026-05-06 16:15 | 51.13442 | -0.56301 | 12999 ft | 348 kts | 207° |
| 2026-05-06 16:15 | 51.11250 | -0.57984 | 13684 ft | 351 kts | 207° |
| 2026-05-06 16:15 | 51.09024 | -0.59628 | 14292 ft | 355 kts | 202° |
| 2026-05-06 16:15 | 51.07452 | -0.60402 | 14679 ft | 359 kts | 194° |
| 2026-05-06 16:16 | 51.04964 | -0.60840 | 15273 ft | 363 kts | 180° |
| 2026-05-06 16:16 | 51.02450 | -0.60354 | 15850 ft | 367 kts | 167° |
| 2026-05-06 16:16 | 51.00035 | -0.58985 | 16436 ft | 371 kts | 158° |
| 2026-05-06 16:16 | 50.97648 | -0.57386 | 17031 ft | 373 kts | 158° |
| 2026-05-06 16:17 | 50.95244 | -0.55786 | 17624 ft | 376 kts | 158° |
| 2026-05-06 16:17 | 50.92819 | -0.54181 | 18208 ft | 379 kts | 158° |
| 2026-05-06 16:17 | 50.90373 | -0.52570 | 18733 ft | 382 kts | 159° |
| 2026-05-06 16:17 | 50.87908 | -0.50949 | 19275 ft | 385 kts | 159° |
| 2026-05-06 16:18 | 50.85431 | -0.49320 | 19823 ft | 388 kts | 159° |
| 2026-05-06 16:18 | 50.82931 | -0.47680 | 20370 ft | 390 kts | 159° |
| 2026-05-06 16:18 | 50.80411 | -0.46035 | 20896 ft | 393 kts | 159° |
| 2026-05-06 16:18 | 50.77874 | -0.44383 | 21413 ft | 396 kts | 159° |
| 2026-05-06 16:19 | 50.75321 | -0.42720 | 21931 ft | 398 kts | 159° |
| 2026-05-06 16:19 | 50.72751 | -0.41042 | 22434 ft | 401 kts | 158° |
| 2026-05-06 16:19 | 50.70164 | -0.39351 | 22927 ft | 404 kts | 158° |
| 2026-05-06 16:19 | 50.67559 | -0.37649 | 23427 ft | 407 kts | 158° |
| 2026-05-06 16:20 | 50.64936 | -0.35939 | 23841 ft | 409 kts | 158° |
| 2026-05-06 16:20 | 50.62298 | -0.34221 | 24260 ft | 411 kts | 158° |
| 2026-05-06 16:20 | 50.59649 | -0.32497 | 24668 ft | 413 kts | 158° |
| 2026-05-06 16:20 | 50.56987 | -0.30770 | 25078 ft | 415 kts | 158° |
| 2026-05-06 16:21 | 50.54313 | -0.29041 | 25475 ft | 416 kts | 158° |
| 2026-05-06 16:21 | 50.51628 | -0.27306 | 25862 ft | 418 kts | 158° |
| 2026-05-06 16:21 | 50.48934 | -0.25565 | 26259 ft | 420 kts | 158° |
| 2026-05-06 16:21 | 50.46229 | -0.23819 | 26641 ft | 421 kts | 159° |
| 2026-05-06 16:22 | 50.43513 | -0.22068 | 27017 ft | 423 kts | 159° |
| 2026-05-06 16:22 | 50.40788 | -0.20310 | 27390 ft | 424 kts | 159° |
| 2026-05-06 16:22 | 50.38058 | -0.18555 | 27767 ft | 426 kts | 159° |
| 2026-05-06 16:22 | 50.35313 | -0.16793 | 28147 ft | 427 kts | 159° |
| 2026-05-06 16:23 | 50.32596 | -0.15053 | 28510 ft | 428 kts | 159° |
| 2026-05-06 16:23 | 50.29833 | -0.13286 | 28872 ft | 430 kts | 159° |
| 2026-05-06 16:23 | 50.27061 | -0.11514 | 29231 ft | 431 kts | 159° |
| 2026-05-06 16:23 | 50.24278 | -0.09740 | 29584 ft | 433 kts | 159° |
| 2026-05-06 16:24 | 50.21485 | -0.07965 | 29963 ft | 433 kts | 159° |
| 2026-05-06 16:24 | 50.18706 | -0.06162 | 30380 ft | 432 kts | 158° |
| 2026-05-06 16:24 | 50.15957 | -0.04284 | 30814 ft | 431 kts | 156° |
| 2026-05-06 16:24 | 50.13230 | -0.02360 | 31216 ft | 430 kts | 156° |
| 2026-05-06 16:25 | 50.10499 | -0.00462 | 31593 ft | 430 kts | 159° |
| 2026-05-06 16:25 | 50.07653 | 0.00930 | 31971 ft | 429 kts | 166° |
| 2026-05-06 16:25 | 50.04765 | 0.02093 | 32353 ft | 428 kts | 166° |
| 2026-05-06 16:25 | 50.01877 | 0.03239 | 32739 ft | 428 kts | 166° |
| 2026-05-06 16:26 | 49.98994 | 0.04368 | 33119 ft | 428 kts | 166° |
| 2026-05-06 16:26 | 49.96104 | 0.05495 | 33504 ft | 428 kts | 166° |
| 2026-05-06 16:26 | 49.93218 | 0.06617 | 33916 ft | 427 kts | 166° |
| 2026-05-06 16:26 | 49.90336 | 0.07741 | 34225 ft | 427 kts | 166° |
| 2026-05-06 16:27 | 49.87458 | 0.08868 | 34530 ft | 427 kts | 166° |
| 2026-05-06 16:27 | 49.84580 | 0.09996 | 34796 ft | 427 kts | 166° |
| 2026-05-06 16:27 | 49.81698 | 0.11124 | 34951 ft | 428 kts | 166° |
| 2026-05-06 16:27 | 49.78801 | 0.12254 | 34988 ft | 431 kts | 166° |
| 2026-05-06 16:28 | 49.72979 | 0.14526 | 34991 ft | 432 kts | 166° |
| 2026-05-06 16:28 | 49.67196 | 0.16774 | 35000 ft | 431 kts | 166° |
| 2026-05-06 16:29 | 49.61387 | 0.19091 | 34998 ft | 431 kts | 165° |
| 2026-05-06 16:29 | 49.55602 | 0.21451 | 35006 ft | 430 kts | 165° |
| 2026-05-06 16:30 | 49.50747 | 0.23410 | 34999 ft | 430 kts | 165° |
| 2026-05-06 16:30 | 49.44008 | 0.26113 | 34986 ft | 431 kts | 165° |
| 2026-05-06 16:31 | 49.38203 | 0.28435 | 34982 ft | 431 kts | 165° |
| 2026-05-06 16:31 | 49.32394 | 0.30751 | 34990 ft | 431 kts | 165° |
| 2026-05-06 16:32 | 49.26591 | 0.33104 | 34984 ft | 431 kts | 164° |
| 2026-05-06 16:32 | 49.20807 | 0.35568 | 34981 ft | 431 kts | 163° |
| 2026-05-06 16:33 | 49.15024 | 0.38039 | 34988 ft | 432 kts | 163° |
| 2026-05-06 16:34 | 49.06342 | 0.41687 | 34985 ft | 432 kts | 163° |
| 2026-05-06 16:34 | 49.00549 | 0.44105 | 34978 ft | 431 kts | 163° |
| 2026-05-06 16:35 | 48.94758 | 0.46513 | 34982 ft | 431 kts | 163° |
| 2026-05-06 16:35 | 48.88975 | 0.48912 | 34983 ft | 431 kts | 163° |
| 2026-05-06 16:36 | 48.83186 | 0.51321 | 34982 ft | 431 kts | 163° |
| 2026-05-06 16:36 | 48.77411 | 0.53706 | 34970 ft | 430 kts | 164° |
| 2026-05-06 16:37 | 48.71616 | 0.55994 | 34978 ft | 430 kts | 165° |
| 2026-05-06 16:37 | 48.65852 | 0.58209 | 34980 ft | 430 kts | 165° |
| 2026-05-06 16:38 | 48.60059 | 0.60457 | 34974 ft | 430 kts | 164° |
| 2026-05-06 16:38 | 48.54272 | 0.62720 | 34977 ft | 429 kts | 164° |
| 2026-05-06 16:39 | 48.48491 | 0.64999 | 34979 ft | 429 kts | 164° |
| 2026-05-06 16:39 | 48.42734 | 0.67353 | 34971 ft | 429 kts | 163° |
| 2026-05-06 16:40 | 48.36977 | 0.69725 | 34967 ft | 429 kts | 163° |
| 2026-05-06 16:40 | 48.31213 | 0.72061 | 34969 ft | 429 kts | 164° |
| 2026-05-06 16:41 | 48.25441 | 0.74377 | 34969 ft | 430 kts | 164° |
| 2026-05-06 16:41 | 48.19661 | 0.76682 | 34961 ft | 430 kts | 164° |
| 2026-05-06 16:42 | 48.13876 | 0.78954 | 34956 ft | 430 kts | 164° |
| 2026-05-06 16:42 | 48.08084 | 0.81214 | 34962 ft | 430 kts | 164° |
| 2026-05-06 16:43 | 48.02294 | 0.83476 | 34953 ft | 430 kts | 164° |
| 2026-05-06 16:43 | 47.96501 | 0.85738 | 34951 ft | 431 kts | 165° |
| 2026-05-06 16:44 | 47.90707 | 0.88001 | 34957 ft | 431 kts | 165° |
| 2026-05-06 16:44 | 47.84896 | 0.90259 | 34957 ft | 431 kts | 165° |
| 2026-05-06 16:45 | 47.79122 | 0.92502 | 34948 ft | 432 kts | 165° |
| 2026-05-06 16:45 | 47.73309 | 0.94746 | 34957 ft | 432 kts | 165° |
| 2026-05-06 16:46 | 47.67497 | 0.96999 | 34951 ft | 431 kts | 165° |
| 2026-05-06 16:46 | 47.61686 | 0.99240 | 34957 ft | 432 kts | 165° |
| 2026-05-06 16:47 | 47.55873 | 1.01474 | 34954 ft | 432 kts | 165° |
| 2026-05-06 16:47 | 47.50059 | 1.03702 | 34960 ft | 431 kts | 165° |
| 2026-05-06 16:48 | 47.44242 | 1.05878 | 34958 ft | 431 kts | 169° |
| 2026-05-06 16:48 | 47.38278 | 1.06385 | 34981 ft | 431 kts | 181° |
| 2026-05-06 16:49 | 47.32305 | 1.06194 | 34945 ft | 429 kts | 181° |
| 2026-05-06 16:49 | 47.26343 | 1.06040 | 34946 ft | 429 kts | 180° |
| 2026-05-06 16:50 | 47.20375 | 1.05910 | 34951 ft | 429 kts | 180° |
| 2026-05-06 16:50 | 47.14408 | 1.05776 | 34947 ft | 429 kts | 180° |
| 2026-05-06 16:51 | 47.08441 | 1.05639 | 34952 ft | 429 kts | 180° |
| 2026-05-06 16:51 | 47.02478 | 1.05497 | 34954 ft | 428 kts | 181° |
| 2026-05-06 16:52 | 46.96515 | 1.05294 | 34958 ft | 428 kts | 181° |
| 2026-05-06 16:52 | 46.90561 | 1.05005 | 34950 ft | 428 kts | 181° |
| 2026-05-06 16:53 | 46.84610 | 1.04722 | 34949 ft | 428 kts | 181° |
| 2026-05-06 16:53 | 46.78699 | 1.04468 | 34951 ft | 428 kts | 181° |
| 2026-05-06 16:54 | 46.72750 | 1.04223 | 34957 ft | 428 kts | 181° |
| 2026-05-06 16:54 | 46.66810 | 1.03974 | 34951 ft | 427 kts | 181° |
| 2026-05-06 16:55 | 46.60864 | 1.03720 | 34943 ft | 427 kts | 182° |
| 2026-05-06 16:55 | 46.54917 | 1.03471 | 34946 ft | 427 kts | 182° |
| 2026-05-06 16:56 | 46.49013 | 1.04199 | 34937 ft | 427 kts | 167° |
| 2026-05-06 16:56 | 46.43224 | 1.06150 | 34941 ft | 427 kts | 168° |
| 2026-05-06 16:57 | 46.37427 | 1.08086 | 34942 ft | 427 kts | 168° |
| 2026-05-06 16:57 | 46.31630 | 1.10020 | 34930 ft | 427 kts | 168° |
| 2026-05-06 16:58 | 46.25834 | 1.11944 | 34933 ft | 427 kts | 168° |
| 2026-05-06 16:58 | 46.20039 | 1.13864 | 34931 ft | 427 kts | 168° |
| 2026-05-06 16:59 | 46.14246 | 1.15787 | 34926 ft | 427 kts | 168° |
| 2026-05-06 16:59 | 46.08454 | 1.17696 | 34930 ft | 427 kts | 168° |
| 2026-05-06 17:00 | 46.02664 | 1.19604 | 34928 ft | 427 kts | 168° |
| 2026-05-06 17:00 | 45.96877 | 1.21510 | 34919 ft | 426 kts | 168° |
| 2026-05-06 17:01 | 45.91100 | 1.23406 | 34920 ft | 426 kts | 168° |
| 2026-05-06 17:01 | 45.85315 | 1.25306 | 34918 ft | 427 kts | 168° |
| 2026-05-06 17:02 | 45.79526 | 1.27207 | 34921 ft | 427 kts | 168° |
| 2026-05-06 17:02 | 45.73729 | 1.29098 | 34917 ft | 427 kts | 168° |
| 2026-05-06 17:03 | 45.67926 | 1.30990 | 34916 ft | 428 kts | 168° |
| 2026-05-06 17:03 | 45.62155 | 1.32867 | 34911 ft | 428 kts | 169° |
| 2026-05-06 17:04 | 45.56340 | 1.34744 | 34909 ft | 429 kts | 169° |
| 2026-05-06 17:04 | 45.50526 | 1.36614 | 34911 ft | 429 kts | 169° |
| 2026-05-06 17:05 | 45.44701 | 1.38502 | 34911 ft | 429 kts | 169° |
| 2026-05-06 17:05 | 45.39856 | 1.40062 | 34908 ft | 429 kts | 169° |
| 2026-05-06 17:06 | 45.34025 | 1.41936 | 34914 ft | 430 kts | 169° |
| 2026-05-06 17:06 | 45.28193 | 1.43808 | 34921 ft | 430 kts | 169° |
| 2026-05-06 17:07 | 45.22366 | 1.45674 | 34923 ft | 430 kts | 169° |
| 2026-05-06 17:07 | 45.16532 | 1.47542 | 34924 ft | 430 kts | 169° |
| 2026-05-06 17:08 | 45.10698 | 1.49403 | 34929 ft | 430 kts | 169° |
| 2026-05-06 17:08 | 45.04865 | 1.51247 | 34926 ft | 429 kts | 169° |
| 2026-05-06 17:09 | 44.99035 | 1.53105 | 34927 ft | 429 kts | 169° |
| 2026-05-06 17:09 | 44.93207 | 1.54956 | 34933 ft | 429 kts | 170° |
| 2026-05-06 17:10 | 44.87383 | 1.56800 | 34932 ft | 429 kts | 170° |
| 2026-05-06 17:10 | 44.81561 | 1.58633 | 34930 ft | 429 kts | 170° |
| 2026-05-06 17:11 | 44.75738 | 1.60463 | 34928 ft | 429 kts | 170° |
| 2026-05-06 17:11 | 44.69925 | 1.62287 | 34931 ft | 428 kts | 170° |
| 2026-05-06 17:12 | 44.64105 | 1.64118 | 34928 ft | 429 kts | 170° |
| 2026-05-06 17:12 | 44.58284 | 1.65946 | 34936 ft | 429 kts | 170° |
| 2026-05-06 17:13 | 44.52460 | 1.67767 | 34934 ft | 429 kts | 171° |
| 2026-05-06 17:13 | 44.46636 | 1.69580 | 34942 ft | 429 kts | 171° |
| 2026-05-06 17:14 | 44.40813 | 1.71390 | 34941 ft | 428 kts | 171° |
| 2026-05-06 17:14 | 44.34991 | 1.73194 | 34948 ft | 428 kts | 171° |
| 2026-05-06 17:15 | 44.29175 | 1.74984 | 34949 ft | 428 kts | 172° |
| 2026-05-06 17:15 | 44.23330 | 1.76441 | 34948 ft | 426 kts | 175° |
| 2026-05-06 17:16 | 44.17467 | 1.77631 | 34950 ft | 426 kts | 175° |
| 2026-05-06 17:16 | 44.11608 | 1.78837 | 34952 ft | 425 kts | 175° |
| 2026-05-06 17:17 | 44.05757 | 1.80118 | 34951 ft | 426 kts | 174° |
| 2026-05-06 17:17 | 43.99914 | 1.81422 | 34956 ft | 426 kts | 174° |
| 2026-05-06 17:18 | 43.94100 | 1.82654 | 34953 ft | 425 kts | 177° |
| 2026-05-06 17:18 | 43.88230 | 1.83342 | 34960 ft | 422 kts | 180° |
| 2026-05-06 17:19 | 43.82363 | 1.83754 | 34959 ft | 422 kts | 181° |
| 2026-05-06 17:19 | 43.76498 | 1.84225 | 34966 ft | 422 kts | 180° |
| 2026-05-06 17:20 | 43.70637 | 1.84794 | 34974 ft | 422 kts | 180° |
| 2026-05-06 17:20 | 43.64784 | 1.85389 | 34975 ft | 421 kts | 180° |
| 2026-05-06 17:21 | 43.58942 | 1.85961 | 34978 ft | 421 kts | 180° |
| 2026-05-06 17:21 | 43.53097 | 1.86519 | 34977 ft | 421 kts | 180° |
| 2026-05-06 17:22 | 43.47254 | 1.87082 | 34975 ft | 421 kts | 180° |
| 2026-05-06 17:22 | 43.41413 | 1.87638 | 34968 ft | 420 kts | 180° |
| 2026-05-06 17:23 | 43.35588 | 1.88196 | 34958 ft | 420 kts | 181° |
| 2026-05-06 17:23 | 43.29760 | 1.88754 | 34953 ft | 420 kts | 181° |
| 2026-05-06 17:24 | 43.23932 | 1.89312 | 34952 ft | 420 kts | 181° |
| 2026-05-06 17:24 | 43.18101 | 1.89865 | 34960 ft | 420 kts | 181° |
| 2026-05-06 17:25 | 43.12306 | 1.90414 | 34964 ft | 420 kts | 181° |
| 2026-05-06 17:25 | 43.06472 | 1.90967 | 34971 ft | 420 kts | 181° |
| 2026-05-06 17:26 | 43.00640 | 1.91517 | 35010 ft | 420 kts | 182° |
| 2026-05-06 17:26 | 42.94787 | 1.92074 | 34960 ft | 423 kts | 182° |
| 2026-05-06 17:27 | 42.88909 | 1.92635 | 34950 ft | 425 kts | 182° |
| 2026-05-06 17:27 | 42.83006 | 1.93192 | 34950 ft | 425 kts | 182° |
| 2026-05-06 17:28 | 42.77096 | 1.93743 | 34961 ft | 426 kts | 182° |
| 2026-05-06 17:28 | 42.71187 | 1.94306 | 34969 ft | 426 kts | 182° |
| 2026-05-06 17:29 | 42.65297 | 1.95384 | 34968 ft | 433 kts | 171° |
| 2026-05-06 17:29 | 42.59475 | 1.97490 | 34972 ft | 433 kts | 171° |
| 2026-05-06 17:30 | 42.53651 | 1.99596 | 34969 ft | 433 kts | 171° |
| 2026-05-06 17:30 | 42.47837 | 2.01686 | 34968 ft | 432 kts | 171° |
| 2026-05-06 17:31 | 42.42020 | 2.03770 | 34954 ft | 432 kts | 172° |
| 2026-05-06 17:31 | 42.36205 | 2.05844 | 34953 ft | 432 kts | 172° |
| 2026-05-06 17:32 | 42.30393 | 2.07916 | 34941 ft | 431 kts | 172° |
| 2026-05-06 17:32 | 42.24591 | 2.09975 | 34945 ft | 431 kts | 172° |
| 2026-05-06 17:33 | 42.18792 | 2.12018 | 34942 ft | 431 kts | 172° |
| 2026-05-06 17:33 | 42.12995 | 2.14070 | 34938 ft | 430 kts | 172° |
| 2026-05-06 17:34 | 42.07209 | 2.16122 | 34933 ft | 429 kts | 172° |
| 2026-05-06 17:34 | 42.01431 | 2.18164 | 34931 ft | 429 kts | 172° |
| 2026-05-06 17:35 | 41.95667 | 2.20184 | 34927 ft | 428 kts | 172° |
| 2026-05-06 17:35 | 41.89938 | 2.22190 | 34924 ft | 428 kts | 172° |
| 2026-05-06 17:36 | 41.81294 | 2.25221 | 34926 ft | 428 kts | 172° |
| 2026-05-06 17:36 | 41.75536 | 2.27236 | 34931 ft | 428 kts | 172° |
| 2026-05-06 17:37 | 41.69772 | 2.29246 | 34934 ft | 428 kts | 172° |
| 2026-05-06 17:37 | 41.64011 | 2.31252 | 34932 ft | 428 kts | 173° |
| 2026-05-06 17:38 | 41.58253 | 2.33253 | 34932 ft | 427 kts | 173° |
| 2026-05-06 17:38 | 41.52506 | 2.35262 | 34947 ft | 426 kts | 173° |
| 2026-05-06 17:39 | 41.46762 | 2.37262 | 34947 ft | 427 kts | 173° |
| 2026-05-06 17:39 | 41.41011 | 2.39238 | 34945 ft | 427 kts | 173° |
| 2026-05-06 17:40 | 41.35265 | 2.41215 | 34948 ft | 427 kts | 173° |
| 2026-05-06 17:40 | 41.29515 | 2.43199 | 34950 ft | 427 kts | 173° |
| 2026-05-06 17:41 | 41.23767 | 2.45184 | 34943 ft | 427 kts | 173° |
| 2026-05-06 17:41 | 41.18018 | 2.47162 | 34942 ft | 427 kts | 173° |
| 2026-05-06 17:42 | 41.12268 | 2.49129 | 34612 ft | 426 kts | 174° |
| 2026-05-06 17:42 | 41.09353 | 2.50121 | 32697 ft | 440 kts | 174° |
| 2026-05-06 17:42 | 41.06344 | 2.51134 | 30767 ft | 451 kts | 174° |
| 2026-05-06 17:43 | 41.03274 | 2.52173 | 28734 ft | 457 kts | 173° |
| 2026-05-06 17:43 | 41.00185 | 2.53229 | 26578 ft | 461 kts | 172° |
| 2026-05-06 17:43 | 40.97089 | 2.54291 | 24538 ft | 464 kts | 171° |
| 2026-05-06 17:43 | 40.93958 | 2.55367 | 22993 ft | 459 kts | 171° |
| 2026-05-06 17:44 | 40.90901 | 2.56423 | 21470 ft | 449 kts | 171° |
| 2026-05-06 17:44 | 40.87902 | 2.57458 | 20003 ft | 441 kts | 170° |
| 2026-05-06 17:44 | 40.84956 | 2.58468 | 18610 ft | 433 kts | 170° |
| 2026-05-06 17:44 | 40.82062 | 2.59452 | 17128 ft | 426 kts | 169° |
| 2026-05-06 17:45 | 40.79210 | 2.60414 | 15713 ft | 420 kts | 169° |
| 2026-05-06 17:45 | 40.76413 | 2.61357 | 14795 ft | 406 kts | 168° |
| 2026-05-06 17:45 | 40.73770 | 2.62252 | 14208 ft | 382 kts | 168° |
| 2026-05-06 17:45 | 40.71163 | 2.63131 | 12536 ft | 390 kts | 168° |
| 2026-05-06 17:46 | 40.68509 | 2.64016 | 11005 ft | 393 kts | 167° |
| 2026-05-06 17:46 | 40.65875 | 2.64900 | 9746 ft | 388 kts | 167° |
| 2026-05-06 17:46 | 40.63318 | 2.65766 | 9094 ft | 366 kts | 167° |
| 2026-05-06 17:46 | 40.60980 | 2.66567 | 8872 ft | 337 kts | 167° |
| 2026-05-06 17:47 | 40.58797 | 2.67314 | 8706 ft | 311 kts | 168° |
| 2026-05-06 17:47 | 40.56776 | 2.67996 | 8855 ft | 292 kts | 168° |
| 2026-05-06 17:47 | 40.54815 | 2.68653 | 8929 ft | 291 kts | 168° |
| 2026-05-06 17:47 | 40.52855 | 2.69307 | 8931 ft | 290 kts | 168° |
| 2026-05-06 17:48 | 40.50906 | 2.69991 | 8935 ft | 290 kts | 164° |
| 2026-05-06 17:48 | 40.49025 | 2.70986 | 8936 ft | 292 kts | 156° |
| 2026-05-06 17:48 | 40.47234 | 2.72265 | 8937 ft | 293 kts | 153° |
| 2026-05-06 17:48 | 40.45452 | 2.73563 | 8938 ft | 293 kts | 153° |
| 2026-05-06 17:49 | 40.43668 | 2.74858 | 8940 ft | 293 kts | 153° |
| 2026-05-06 17:49 | 40.41872 | 2.76104 | 8944 ft | 291 kts | 160° |
| 2026-05-06 17:49 | 40.39917 | 2.76655 | 8945 ft | 286 kts | 182° |
| 2026-05-06 17:49 | 40.37984 | 2.76227 | 8943 ft | 281 kts | 201° |
| 2026-05-06 17:50 | 40.36128 | 2.75405 | 8943 ft | 282 kts | 201° |
| 2026-05-06 17:50 | 40.34274 | 2.74571 | 8942 ft | 282 kts | 201° |
| 2026-05-06 17:50 | 40.32420 | 2.73734 | 8946 ft | 282 kts | 201° |
| 2026-05-06 17:50 | 40.30564 | 2.72899 | 8939 ft | 282 kts | 201° |
| 2026-05-06 17:51 | 40.28707 | 2.72070 | 8936 ft | 282 kts | 201° |
| 2026-05-06 17:51 | 40.26849 | 2.71244 | 8948 ft | 282 kts | 201° |
| 2026-05-06 17:51 | 40.24995 | 2.70420 | 8945 ft | 282 kts | 201° |
| 2026-05-06 17:51 | 40.23762 | 2.69872 | 8945 ft | 282 kts | 201° |
| 2026-05-06 17:52 | 40.21904 | 2.69046 | 8944 ft | 282 kts | 201° |
| 2026-05-06 17:52 | 40.20047 | 2.68220 | 8935 ft | 282 kts | 201° |
| 2026-05-06 17:52 | 40.18187 | 2.67393 | 8942 ft | 282 kts | 201° |
| 2026-05-06 17:52 | 40.16325 | 2.66568 | 8940 ft | 282 kts | 201° |
| 2026-05-06 17:53 | 40.14464 | 2.65746 | 8937 ft | 282 kts | 201° |
| 2026-05-06 17:53 | 40.12603 | 2.64924 | 8941 ft | 282 kts | 201° |
| 2026-05-06 17:53 | 40.10744 | 2.64101 | 8948 ft | 282 kts | 201° |
| 2026-05-06 17:53 | 40.08882 | 2.63274 | 8947 ft | 283 kts | 201° |
| 2026-05-06 17:54 | 40.07022 | 2.62446 | 8942 ft | 283 kts | 201° |
| 2026-05-06 17:54 | 40.05159 | 2.61619 | 8944 ft | 283 kts | 201° |
| 2026-05-06 17:54 | 40.03294 | 2.60795 | 8945 ft | 283 kts | 201° |
| 2026-05-06 17:54 | 40.01454 | 2.59985 | 8945 ft | 283 kts | 201° |
| 2026-05-06 17:55 | 39.99563 | 2.59153 | 8941 ft | 283 kts | 201° |
| 2026-05-06 17:55 | 39.97717 | 2.58342 | 8951 ft | 283 kts | 201° |
| 2026-05-06 17:55 | 39.95851 | 2.57520 | 8942 ft | 283 kts | 201° |
| 2026-05-06 17:55 | 39.93984 | 2.56695 | 8943 ft | 283 kts | 201° |
| 2026-05-06 17:56 | 39.92121 | 2.55874 | 8943 ft | 283 kts | 200° |
| 2026-05-06 17:56 | 39.90256 | 2.55051 | 8943 ft | 283 kts | 201° |
| 2026-05-06 17:56 | 39.88390 | 2.54229 | 8943 ft | 283 kts | 200° |
| 2026-05-06 17:56 | 39.86523 | 2.53408 | 8948 ft | 283 kts | 200° |
| 2026-05-06 17:57 | 39.84644 | 2.52584 | 8945 ft | 283 kts | 200° |
| 2026-05-06 17:57 | 39.82781 | 2.51768 | 8902 ft | 282 kts | 200° |
| 2026-05-06 17:57 | 39.80927 | 2.50954 | 8553 ft | 281 kts | 200° |
| 2026-05-06 17:57 | 39.79103 | 2.50154 | 8213 ft | 279 kts | 200° |
| 2026-05-06 17:58 | 39.77241 | 2.49336 | 7879 ft | 278 kts | 200° |
| 2026-05-06 17:58 | 39.75414 | 2.48535 | 7547 ft | 277 kts | 200° |
| 2026-05-06 17:58 | 39.73594 | 2.47740 | 7233 ft | 275 kts | 200° |
| 2026-05-06 17:58 | 39.71783 | 2.46946 | 6926 ft | 274 kts | 200° |
| 2026-05-06 17:59 | 39.69987 | 2.46157 | 6615 ft | 272 kts | 200° |
| 2026-05-06 17:59 | 39.68202 | 2.45374 | 6315 ft | 270 kts | 200° |
| 2026-05-06 17:59 | 39.66447 | 2.44608 | 6048 ft | 267 kts | 200° |
| 2026-05-06 17:59 | 39.64685 | 2.43840 | 6001 ft | 264 kts | 200° |
| 2026-05-06 18:00 | 39.62991 | 2.43102 | 6003 ft | 250 kts | 199° |
| 2026-05-06 18:00 | 39.61349 | 2.42435 | 5842 ft | 246 kts | 191° |
| 2026-05-06 18:00 | 39.59649 | 2.42356 | 5620 ft | 243 kts | 178° |
| 2026-05-06 18:00 | 39.57993 | 2.42474 | 5499 ft | 234 kts | 177° |
| 2026-05-06 18:01 | 39.56394 | 2.42603 | 5354 ft | 227 kts | 177° |
| 2026-05-06 18:01 | 39.54830 | 2.42726 | 5127 ft | 224 kts | 177° |
| 2026-05-06 18:01 | 39.53279 | 2.42838 | 4853 ft | 223 kts | 177° |
| 2026-05-06 18:01 | 39.51735 | 2.42938 | 4569 ft | 222 kts | 177° |
| 2026-05-06 18:02 | 39.50198 | 2.43031 | 4275 ft | 220 kts | 174° |
| 2026-05-06 18:02 | 39.48777 | 2.43659 | 3989 ft | 217 kts | 142° |
| 2026-05-06 18:02 | 39.47897 | 2.45193 | 3681 ft | 216 kts | 107° |
| 2026-05-06 18:02 | 39.47672 | 2.47111 | 3387 ft | 216 kts | 94° |
| 2026-05-06 18:03 | 39.47609 | 2.49050 | 3086 ft | 215 kts | 92° |
| 2026-05-06 18:03 | 39.47564 | 2.50986 | 2993 ft | 214 kts | 92° |
| 2026-05-06 18:03 | 39.47520 | 2.52915 | 3004 ft | 215 kts | 92° |
| 2026-05-06 18:03 | 39.47491 | 2.54849 | 2967 ft | 216 kts | 88° |
| 2026-05-06 18:04 | 39.47901 | 2.56725 | 2595 ft | 219 kts | 61° |
| 2026-05-06 18:04 | 39.48678 | 2.58366 | 2301 ft | 207 kts | 59° |
| 2026-05-06 18:04 | 39.49400 | 2.59872 | 2064 ft | 186 kts | 60° |
| 2026-05-06 18:04 | 39.50044 | 2.61225 | 1819 ft | 168 kts | 59° |
| 2026-05-06 18:05 | 39.50647 | 2.62494 | 1582 ft | 161 kts | 60° |
| 2026-05-06 18:05 | 39.51199 | 2.63656 | 1365 ft | 145 kts | 60° |
| 2026-05-06 18:05 | 39.51718 | 2.64749 | 1172 ft | 140 kts | 59° |
| 2026-05-06 18:05 | 39.52226 | 2.65821 | 992 ft | 139 kts | 58° |
| 2026-05-06 18:06 | 39.52731 | 2.66888 | 799 ft | 139 kts | 57° |
| 2026-05-06 18:06 | 39.53231 | 2.67960 | 622 ft | 139 kts | 55° |
| 2026-05-06 18:06 | 39.53743 | 2.69008 | 469 ft | 137 kts | 57° |
| 2026-05-06 18:06 | 39.54239 | 2.70069 | 265 ft | 136 kts | 58° |
| 2026-05-06 18:07 | 39.54729 | 2.71103 | 71 ft | 135 kts | 57° |
| 2026-05-06 18:07 | 39.55201 | 2.72091 | 23 ft | 114 kts | 59° |
| 2026-05-06 18:07 | 39.55521 | 2.72775 | 21 ft | 64 kts | 58° |
| 2026-05-06 18:07 | 39.55668 | 2.73085 | 21 ft | 25 kts | 61° |
| 2026-05-06 18:08 | 39.55713 | 2.73311 | 18 ft | 27 kts | 87° |
| 2026-05-06 18:08 | 39.55695 | 2.73435 | 19 ft | 0 kts | 136° |
| 2026-05-06 18:08 | 39.55694 | 2.73437 | 20 ft | 2 kts | 136° |
| 2026-05-06 18:09 | 39.55637 | 2.73454 | 19 ft | 13 kts | 210° |
| 2026-05-06 18:09 | 39.55581 | 2.73354 | 19 ft | 15 kts | 238° |
| 2026-05-06 18:09 | 39.55523 | 2.73231 | 20 ft | 17 kts | 241° |
| 2026-05-06 18:09 | 39.55458 | 2.73090 | 20 ft | 19 kts | 239° |
| 2026-05-06 18:10 | 39.55384 | 2.72932 | 20 ft | 22 kts | 239° |
| 2026-05-06 18:10 | 39.55303 | 2.72762 | 22 ft | 23 kts | 239° |
| 2026-05-06 18:10 | 39.55224 | 2.72589 | 21 ft | 23 kts | 239° |
| 2026-05-06 18:10 | 39.55133 | 2.72485 | 22 ft | 17 kts | 174° |
| 2026-05-06 18:11 | 39.55037 | 2.72571 | 22 ft | 15 kts | 144° |
| 2026-05-06 18:11 | 39.54976 | 2.72621 | 23 ft | 10 kts | 147° |